createdAt,value
2022-10-31T00:00:02.573Z,96994.73
2022-10-31T00:03:02.802Z,96995.14
2022-10-31T00:05:32.585Z,96993.14
2022-10-31T00:08:02.732Z,96995.89
2022-10-31T00:10:32.310Z,97000.08
2022-10-31T00:13:02.804Z,96998.67
2022-10-31T00:15:34.953Z,96998.13
2022-10-31T00:18:06.369Z,97000.19
2022-10-31T00:20:36.711Z,96998.61
2022-10-31T00:23:07.710Z,97002.59
2022-10-31T00:25:42.142Z,97001.88
2022-10-31T00:28:13.694Z,97005.23
2022-10-31T00:30:44.253Z,97001.73
2022-10-31T00:33:14.193Z,97001.99
2022-10-31T00:35:50.884Z,97003.41
2022-10-31T00:38:19.861Z,97003.34
2022-10-31T00:40:49.849Z,97008.60
2022-10-31T00:43:19.898Z,97008.39
2022-10-31T00:45:50.595Z,97014.42
2022-10-31T00:48:21.246Z,97015.67
2022-10-31T00:50:52.682Z,97019.30
2022-10-31T00:53:23.080Z,97020.28
2022-10-31T00:55:53.607Z,97017.39
2022-10-31T00:58:23.730Z,97022.05
2022-10-31T01:00:57.966Z,97022.74
2022-10-31T01:03:31.201Z,97024.92
2022-10-31T01:06:09.835Z,97026.70
2022-10-31T01:08:40.459Z,97028.11
2022-10-31T01:11:19.430Z,97025.39
2022-10-31T01:13:51.711Z,97024.02
2022-10-31T01:16:24.788Z,97030.69
2022-10-31T01:18:55.780Z,97030.28
2022-10-31T01:21:28.742Z,97031.59
2022-10-31T01:24:03.663Z,97030.23
2022-10-31T01:26:36.169Z,97029.52
2022-10-31T01:29:08.196Z,97031.21
2022-10-31T01:31:40.806Z,97029.39
2022-10-31T01:34:16.049Z,97025.36
2022-10-31T01:36:52.569Z,97021.36
2022-10-31T01:39:23.541Z,97022.13
2022-10-31T01:41:54.964Z,97015.73
2022-10-31T01:44:26.504Z,97017.58
2022-10-31T01:47:01.858Z,97015.25
2022-10-31T01:49:41.226Z,97015.30
2022-10-31T01:52:15.946Z,97014.38
2022-10-31T01:54:56.157Z,97013.30
2022-10-31T01:57:28.771Z,97015.27
2022-10-31T02:00:03.316Z,97015.64
2022-10-31T02:02:46.322Z,97010.15
2022-10-31T02:05:21.876Z,97015.75
2022-10-31T02:08:35.617Z,97013.46
2022-10-31T02:11:04.904Z,97011.13
2022-10-31T02:13:36.076Z,97008.23
2022-10-31T02:16:11.972Z,97011.55
2022-10-31T02:18:42.386Z,97016.27
2022-10-31T02:21:32.509Z,97014.58
2022-10-31T02:24:11.833Z,97014.83
2022-10-31T02:27:05.650Z,97019.86
2022-10-31T02:29:49.576Z,97022.88
2022-10-31T02:33:04.995Z,97021.02
2022-10-31T02:35:51.147Z,97022.95
2022-10-31T02:38:47.616Z,97026.31
2022-10-31T02:42:04.638Z,97021.11
2022-10-31T02:44:40.303Z,97021.81
2022-10-31T02:47:20.181Z,97023.30
2022-10-31T02:49:58.829Z,97023.45
2022-10-31T02:52:35.127Z,97025.55
2022-10-31T02:55:25.442Z,97024.48
2022-10-31T02:58:04.706Z,97024.91
2022-10-31T03:00:39.677Z,97024.27
2022-10-31T03:03:34.126Z,97022.80
2022-10-31T03:06:18.248Z,97014.04
2022-10-31T03:09:14.334Z,97016.52
2022-10-31T03:11:56.246Z,97022.88
2022-10-31T03:14:42.578Z,97022.11
2022-10-31T03:17:35.938Z,97027.30
2022-10-31T03:20:11.921Z,97023.98
2022-10-31T03:22:45.417Z,97021.96
2022-10-31T03:25:17.556Z,97026.00
2022-10-31T03:27:48.671Z,97031.15
2022-10-31T03:30:19.374Z,97031.04
2022-10-31T03:33:00.631Z,97032.81
2022-10-31T03:35:37.304Z,97035.29
2022-10-31T03:38:08.055Z,97034.48
2022-10-31T03:40:39.863Z,97033.83
2022-10-31T03:43:16.652Z,97034.70
2022-10-31T03:45:48.956Z,97034.96
2022-10-31T03:48:21.399Z,97030.89
2022-10-31T03:50:56.593Z,97037.23
2022-10-31T03:53:39.310Z,97034.64
2022-10-31T03:56:32.116Z,97034.80
2022-10-31T03:59:12.887Z,97039.27
2022-10-31T04:01:52.444Z,97039.52
2022-10-31T04:04:23.888Z,97041.05
2022-10-31T04:06:56.178Z,97040.64
2022-10-31T04:09:29.500Z,97039.17
2022-10-31T04:12:06.387Z,97041.67
2022-10-31T04:15:00.523Z,97043.03
2022-10-31T04:17:34.253Z,97040.10
2022-10-31T04:20:05.359Z,97042.42
2022-10-31T04:22:35.561Z,97045.63
2022-10-31T04:25:08.363Z,97047.80
2022-10-31T04:27:38.430Z,97045.68
2022-10-31T04:30:10.965Z,97045.30
2022-10-31T04:32:42.641Z,97044.11
2022-10-31T04:35:13.204Z,97043.63
2022-10-31T04:37:45.869Z,97044.00
2022-10-31T04:40:16.931Z,97041.13
2022-10-31T04:43:25.692Z,97041.28
2022-10-31T04:45:55.927Z,97047.30
2022-10-31T04:48:26.438Z,97046.61
2022-10-31T04:51:02.058Z,97049.98
2022-10-31T04:53:32.148Z,97053.05
2022-10-31T04:56:23.457Z,97052.27
2022-10-31T04:58:59.181Z,97057.22
2022-10-31T05:01:29.989Z,97056.45
2022-10-31T05:04:00.762Z,97059.65
2022-10-31T05:06:32.653Z,97061.39
2022-10-31T05:09:03.133Z,97061.93
2022-10-31T05:11:34.958Z,97068.73
2022-10-31T05:14:16.148Z,97073.75
2022-10-31T05:17:05.871Z,97076.11
2022-10-31T05:19:59.360Z,97078.33
2022-10-31T05:22:52.718Z,97080.73
2022-10-31T05:25:27.714Z,97081.30
2022-10-31T05:27:58.607Z,97084.99
2022-10-31T05:30:32.237Z,97086.02
2022-10-31T05:33:02.916Z,97085.53
2022-10-31T05:36:12.006Z,97082.83
2022-10-31T05:38:46.597Z,97086.06
2022-10-31T05:41:26.341Z,97089.89
2022-10-31T05:44:02.639Z,97093.41
2022-10-31T05:49:14.125Z,97098.95
2022-10-31T05:52:04.046Z,97102.74
2022-10-31T05:54:41.319Z,97104.77
2022-10-31T05:57:12.237Z,97110.27
2022-10-31T05:59:42.545Z,97111.30
2022-10-31T06:02:12.914Z,97115.52
2022-10-31T06:05:03.136Z,97113.94
2022-10-31T06:07:36.158Z,97116.64
2022-10-31T06:10:08.336Z,97113.59
2022-10-31T06:12:39.111Z,97111.30
2022-10-31T06:15:24.107Z,97116.10
2022-10-31T06:18:06.544Z,97113.23
2022-10-31T06:20:40.265Z,97118.81
2022-10-31T06:23:10.148Z,97116.92
2022-10-31T06:25:41.290Z,97116.50
2022-10-31T06:28:11.793Z,97112.48
2022-10-31T06:30:53.739Z,97117.41
2022-10-31T06:33:22.722Z,97112.71
2022-10-31T06:36:01.138Z,97106.80
2022-10-31T06:38:31.052Z,97105.53
2022-10-31T06:41:05.532Z,97098.38
2022-10-31T06:43:48.696Z,97103.13
2022-10-31T06:46:41.740Z,97108.38
2022-10-31T06:49:33.324Z,97105.58
2022-10-31T06:52:06.733Z,97108.64
2022-10-31T06:54:36.843Z,97111.16
2022-10-31T06:57:06.854Z,97108.31
2022-10-31T06:59:35.765Z,97108.35
2022-10-31T07:02:20.509Z,97107.55
2022-10-31T07:04:51.869Z,97106.80
2022-10-31T07:07:23.242Z,97112.37
2022-10-31T07:09:53.779Z,97108.91
2022-10-31T07:12:29.751Z,97110.23
2022-10-31T07:15:01.744Z,97106.77
2022-10-31T07:17:32.216Z,97106.67
2022-10-31T07:20:05.594Z,97111.14
2022-10-31T07:22:36.934Z,97114.82
2022-10-31T07:25:08.661Z,97109.45
2022-10-31T07:27:58.780Z,97109.65
2022-10-31T07:30:29.654Z,97112.54
2022-10-31T07:33:00.720Z,97110.80
2022-10-31T07:35:51.488Z,97107.33
2022-10-31T07:38:23.307Z,97110.96
2022-10-31T07:40:55.263Z,97109.08
2022-10-31T07:43:26.231Z,97100.88
2022-10-31T07:46:25.819Z,97099.36
2022-10-31T07:49:16.252Z,97094.04
2022-10-31T07:52:07.706Z,97095.29
2022-10-31T07:54:37.835Z,97095.56
2022-10-31T07:57:08.276Z,97094.10
2022-10-31T07:59:40.094Z,97096.27
2022-10-31T08:02:10.574Z,97095.84
2022-10-31T08:05:14.080Z,97100.99
2022-10-31T08:08:03.399Z,97103.66
2022-10-31T08:10:34.484Z,97103.16
2022-10-31T08:13:09.903Z,97108.83
2022-10-31T08:15:43.188Z,97107.67
2022-10-31T08:18:14.783Z,97111.71
2022-10-31T08:21:03.852Z,97115.94
2022-10-31T08:23:33.225Z,97120.98
2022-10-31T08:26:03.932Z,97124.80
2022-10-31T08:28:34.380Z,97123.80
2022-10-31T08:31:04.585Z,97123.96
2022-10-31T08:33:44.688Z,97123.59
2022-10-31T08:36:34.807Z,97118.52
2022-10-31T08:39:19.816Z,97119.69
2022-10-31T08:41:51.270Z,97120.33
2022-10-31T08:44:21.351Z,97120.54
2022-10-31T08:46:52.019Z,97122.57
2022-10-31T08:49:22.229Z,97128.91
2022-10-31T08:51:52.704Z,97128.80
2022-10-31T08:54:24.133Z,97136.85
2022-10-31T08:57:00.547Z,97137.77
2022-10-31T08:59:56.234Z,97137.05
2022-10-31T09:02:29.898Z,97139.29
2022-10-31T09:05:05.043Z,97139.94
2022-10-31T09:07:35.329Z,97140.59
2022-10-31T09:10:06.158Z,97140.59
2022-10-31T09:12:42.877Z,97140.53
2022-10-31T09:15:35.923Z,97139.42
2022-10-31T09:18:22.503Z,97143.48
2022-10-31T09:21:00.731Z,97144.45
2022-10-31T09:23:33.489Z,97140.92
2022-10-31T09:26:04.002Z,97137.45
2022-10-31T09:28:37.093Z,97135.06
2022-10-31T09:31:15.680Z,97134.30
2022-10-31T09:34:06.071Z,97138.48
2022-10-31T09:36:40.817Z,97140.06
2022-10-31T09:39:14.940Z,97140.38
2022-10-31T09:42:03.821Z,97136.71
2022-10-31T09:44:53.008Z,97146.05
2022-10-31T09:48:08.314Z,97144.69
2022-10-31T09:50:41.699Z,97149.02
2022-10-31T09:54:00.526Z,97144.80
2022-10-31T09:56:33.657Z,97147.15
2022-10-31T09:59:06.591Z,97154.84
2022-10-31T10:02:05.438Z,97156.65
2022-10-31T10:04:49.102Z,97156.70
2022-10-31T10:07:33.346Z,97153.73
2022-10-31T10:11:01.394Z,97151.42
2022-10-31T10:13:52.014Z,97149.14
2022-10-31T10:16:41.384Z,97155.16
2022-10-31T10:19:44.769Z,97153.07
2022-10-31T10:22:39.914Z,97154.05
2022-10-31T10:25:37.816Z,97155.10
2022-10-31T10:28:40.231Z,97150.34
2022-10-31T10:31:18.014Z,97149.20
2022-10-31T10:34:08.177Z,97146.46
2022-10-31T10:36:56.266Z,97148.59
2022-10-31T10:39:44.638Z,97148.85
2022-10-31T10:42:34.941Z,97146.21
2022-10-31T10:45:40.686Z,97139.60
2022-10-31T10:48:41.256Z,97142.05
2022-10-31T10:51:46.367Z,97140.63
2022-10-31T10:54:52.168Z,97138.84
2022-10-31T10:57:48.313Z,97137.42
2022-10-31T11:00:27.935Z,97138.06
2022-10-31T11:02:58.584Z,97134.39
2022-10-31T11:05:47.326Z,97131.67
2022-10-31T11:08:32.996Z,97130.33
2022-10-31T11:11:29.196Z,97130.33
2022-10-31T11:14:06.654Z,97121.45
2022-10-31T11:16:42.556Z,97126.15
2022-10-31T11:19:20.471Z,97126.09
2022-10-31T11:21:54.090Z,97125.42
2022-10-31T11:24:29.051Z,97122.27
2022-10-31T11:27:23.911Z,97129.23
2022-10-31T11:29:58.272Z,97123.93
2022-10-31T11:32:33.657Z,97127.66
2022-10-31T11:35:11.463Z,97127.92
2022-10-31T11:37:46.904Z,97127.35
2022-10-31T11:40:28.230Z,97129.77
2022-10-31T11:43:00.383Z,97128.94
2022-10-31T11:45:35.554Z,97124.66
2022-10-31T11:48:18.549Z,97126.08
2022-10-31T11:50:58.775Z,97122.29
2022-10-31T11:53:36.586Z,97124.98
2022-10-31T11:56:16.586Z,97123.48
2022-10-31T11:58:59.548Z,97118.95
2022-10-31T12:01:32.142Z,97119.13
2022-10-31T12:04:13.925Z,97121.09
2022-10-31T12:06:49.097Z,97115.59
2022-10-31T12:09:23.475Z,97118.02
2022-10-31T12:12:32.938Z,97113.95
2022-10-31T12:15:24.809Z,97114.15
2022-10-31T12:18:08.121Z,97114.60
2022-10-31T12:20:56.798Z,97114.14
2022-10-31T12:24:11.760Z,97112.42
2022-10-31T12:26:55.477Z,97111.67
2022-10-31T12:29:38.373Z,97109.31
2022-10-31T12:32:30.907Z,97109.03
2022-10-31T12:35:16.292Z,97111.96
2022-10-31T12:38:10.898Z,97110.45
2022-10-31T12:41:15.392Z,97105.66
2022-10-31T12:43:51.017Z,97109.27
2022-10-31T12:46:46.203Z,97106.45
2022-10-31T12:49:32.974Z,97104.44
2022-10-31T12:52:15.330Z,97105.84
2022-10-31T12:55:18.651Z,97106.27
2022-10-31T12:57:53.984Z,97107.85
2022-10-31T13:00:30.396Z,97103.89
2022-10-31T13:03:25.863Z,97101.91
2022-10-31T13:06:06.700Z,97098.36
2022-10-31T13:08:49.717Z,97096.94
2022-10-31T13:11:38.550Z,97097.22
2022-10-31T13:14:31.644Z,97090.73
2022-10-31T13:17:03.999Z,97087.42
2022-10-31T13:19:45.355Z,97090.97
2022-10-31T13:22:31.873Z,97090.47
2022-10-31T13:25:15.871Z,97089.30
2022-10-31T13:28:00.651Z,97092.20
2022-10-31T13:30:34.949Z,97089.92
2022-10-31T13:33:20.518Z,97089.67
2022-10-31T13:36:28.226Z,97087.90
2022-10-31T13:39:22.530Z,97084.56
2022-10-31T13:42:03.912Z,97086.23
2022-10-31T13:44:39.627Z,97083.30
2022-10-31T13:47:28.999Z,97082.63
2022-10-31T13:50:22.631Z,97084.12
2022-10-31T13:52:52.303Z,97080.88
2022-10-31T13:55:49.064Z,97079.70
2022-10-31T13:58:28.517Z,97076.60
2022-10-31T14:01:18.989Z,97070.84
2022-10-31T14:04:25.657Z,97077.27
2022-10-31T14:07:01.070Z,97074.02
2022-10-31T14:09:37.628Z,97073.17
2022-10-31T14:12:23.314Z,97072.98
2022-10-31T14:15:04.521Z,97072.43
2022-10-31T14:17:54.496Z,97073.92
2022-10-31T14:20:33.301Z,97075.90
2022-10-31T14:23:27.448Z,97075.91
2022-10-31T14:26:22.689Z,97069.77
2022-10-31T14:28:53.630Z,97073.91
2022-10-31T14:31:40.994Z,97070.41
2022-10-31T14:34:23.615Z,97069.61
2022-10-31T14:37:14.596Z,97074.87
2022-10-31T14:40:04.908Z,97073.09
2022-10-31T14:42:51.570Z,97075.55
2022-10-31T14:45:52.894Z,97073.81
2022-10-31T14:48:35.542Z,97079.46
2022-10-31T14:51:15.123Z,97078.26
2022-10-31T14:53:54.185Z,97077.27
2022-10-31T14:56:36.452Z,97077.83
2022-10-31T14:59:17.400Z,97078.20
2022-10-31T15:02:18.313Z,97083.20
2022-10-31T15:04:49.564Z,97082.52
2022-10-31T15:07:29.805Z,97084.72
2022-10-31T15:10:07.730Z,97085.13
2022-10-31T15:12:41.432Z,97091.63
2022-10-31T15:15:27.848Z,97090.39
2022-10-31T15:18:01.340Z,97092.24
2022-10-31T15:20:38.161Z,97090.83
2022-10-31T15:23:17.881Z,97089.18
2022-10-31T15:25:49.324Z,97088.77
2022-10-31T15:28:26.553Z,97095.29
2022-10-31T15:31:01.547Z,97093.79
2022-10-31T15:33:46.934Z,97094.23
2022-10-31T15:36:27.747Z,97096.34
2022-10-31T15:39:01.468Z,97098.85
2022-10-31T15:41:34.389Z,97101.48
2022-10-31T15:44:26.196Z,97098.66
2022-10-31T15:47:08.751Z,97102.46
2022-10-31T15:49:49.237Z,97105.66
2022-10-31T15:52:40.080Z,97105.10
2022-10-31T15:55:20.142Z,97109.77
2022-10-31T15:57:57.913Z,97115.17
2022-10-31T16:00:31.292Z,97119.02
2022-10-31T16:03:26.365Z,97122.56
2022-10-31T16:06:01.289Z,97127.42
2022-10-31T16:08:32.072Z,97126.73
2022-10-31T16:11:15.038Z,97129.85
2022-10-31T16:14:23.224Z,97136.00
2022-10-31T16:16:59.553Z,97142.76
2022-10-31T16:19:37.111Z,97139.87
2022-10-31T16:22:14.090Z,97141.13
2022-10-31T16:24:51.251Z,97142.52
2022-10-31T16:27:24.728Z,97144.47
2022-10-31T16:29:53.733Z,97147.52
2022-10-31T16:32:54.007Z,97155.80
2022-10-31T16:35:38.848Z,97154.13
2022-10-31T16:38:10.939Z,97156.52
2022-10-31T16:40:41.586Z,97160.16
2022-10-31T16:43:16.534Z,97162.14
2022-10-31T16:45:48.680Z,97164.38
2022-10-31T16:48:22.623Z,97166.33
2022-10-31T16:50:55.103Z,97168.08
2022-10-31T16:53:25.193Z,97172.98
2022-10-31T16:55:59.802Z,97171.13
2022-10-31T16:58:33.493Z,97172.71
2022-10-31T17:01:07.270Z,97174.39
2022-10-31T17:03:37.812Z,97174.19
2022-10-31T17:06:10.318Z,97177.41
2022-10-31T17:08:39.460Z,97178.52
2022-10-31T17:11:18.119Z,97185.05
2022-10-31T17:13:50.355Z,97179.95
2022-10-31T17:16:20.459Z,97181.70
2022-10-31T17:18:50.503Z,97187.18
2022-10-31T17:21:28.450Z,97184.15
2022-10-31T17:24:01.359Z,97187.46
2022-10-31T17:26:31.344Z,97185.48
2022-10-31T17:29:03.927Z,97192.23
2022-10-31T17:31:37.086Z,97193.21
2022-10-31T17:34:09.133Z,97192.52
2022-10-31T17:36:43.068Z,97190.61
2022-10-31T17:39:18.402Z,97191.42
2022-10-31T17:41:52.718Z,97188.98
2022-10-31T17:44:23.027Z,97191.42
2022-10-31T17:46:53.492Z,97195.56
2022-10-31T17:49:23.808Z,97192.08
2022-10-31T17:51:52.612Z,97195.77
2022-10-31T17:54:23.710Z,97194.89
2022-10-31T17:56:54.665Z,97196.95
2022-10-31T17:59:25.670Z,97189.77
2022-10-31T18:01:57.235Z,97187.48
2022-10-31T18:04:27.391Z,97185.15
2022-10-31T18:06:57.722Z,97190.02
2022-10-31T18:09:30.453Z,97188.35
2022-10-31T18:12:00.884Z,97186.22
2022-10-31T18:14:31.403Z,97186.33
2022-10-31T18:17:01.473Z,97189.90
2022-10-31T18:19:40.382Z,97191.00
2022-10-31T18:22:10.890Z,97191.85
2022-10-31T18:24:41.286Z,97194.89
2022-10-31T18:27:11.952Z,97197.15
2022-10-31T18:29:42.491Z,97196.06
2022-10-31T18:32:12.955Z,97192.36
2022-10-31T18:34:43.237Z,97190.89
2022-10-31T18:37:13.567Z,97190.50
2022-10-31T18:39:44.118Z,97191.31
2022-10-31T18:42:16.422Z,97191.37
2022-10-31T18:44:46.486Z,97189.30
2022-10-31T18:47:18.053Z,97187.30
2022-10-31T18:49:48.160Z,97184.80
2022-10-31T18:52:18.571Z,97186.05
2022-10-31T18:54:47.415Z,97185.57
2022-10-31T18:57:17.894Z,97185.61
2022-10-31T18:59:50.584Z,97187.08
2022-10-31T19:02:21.115Z,97180.73
2022-10-31T19:04:50.071Z,97183.77
2022-10-31T19:07:20.777Z,97181.55
2022-10-31T19:09:51.211Z,97184.43
2022-10-31T19:12:21.588Z,97183.17
2022-10-31T19:14:52.078Z,97184.10
2022-10-31T19:17:25.528Z,97185.04
2022-10-31T19:19:54.498Z,97188.29
2022-10-31T19:22:24.969Z,97187.48
2022-10-31T19:24:55.485Z,97188.17
2022-10-31T19:27:28.021Z,97192.39
2022-10-31T19:29:58.195Z,97186.57
2022-10-31T19:32:28.245Z,97191.55
2022-10-31T19:34:58.237Z,97186.45
2022-10-31T19:37:27.142Z,97187.45
2022-10-31T19:39:58.365Z,97195.10
2022-10-31T19:42:29.433Z,97195.17
2022-10-31T19:44:59.421Z,97191.58
2022-10-31T19:47:29.486Z,97194.15
2022-10-31T19:49:58.314Z,97189.52
2022-10-31T19:52:27.834Z,97187.98
2022-10-31T19:54:57.820Z,97190.13
2022-10-31T19:57:48.809Z,97192.84
2022-10-31T20:00:20.907Z,97189.97
2022-10-31T20:02:51.249Z,97190.56
2022-10-31T20:05:21.209Z,97192.93
2022-10-31T20:07:50.439Z,97195.16
2022-10-31T20:10:20.666Z,97194.52
2022-10-31T20:12:51.439Z,97195.19
2022-10-31T20:15:21.654Z,97195.73
2022-10-31T20:17:51.649Z,97196.36
2022-10-31T20:20:20.867Z,97193.71
2022-10-31T20:22:51.338Z,97195.83
2022-10-31T20:25:22.594Z,97197.99
2022-10-31T20:27:52.550Z,97197.23
2022-10-31T20:30:22.240Z,97200.27
2022-10-31T20:32:52.513Z,97203.71
2022-10-31T20:35:22.491Z,97201.00
2022-10-31T20:37:54.696Z,97203.17
2022-10-31T20:40:23.811Z,97202.88
2022-10-31T20:42:56.417Z,97203.83
2022-10-31T20:45:26.568Z,97207.51
2022-10-31T20:47:57.289Z,97207.63
2022-10-31T20:50:30.532Z,97207.35
2022-10-31T20:53:00.513Z,97204.73
2022-10-31T20:55:31.008Z,97197.79
2022-10-31T20:58:01.043Z,97200.32
2022-10-31T21:00:31.299Z,97202.98
2022-10-31T21:03:01.818Z,97203.95
2022-10-31T21:05:33.193Z,97200.84
2022-10-31T21:08:03.552Z,97198.38
2022-10-31T21:10:34.004Z,97196.27
2022-10-31T21:13:06.477Z,97194.73
2022-10-31T21:15:36.751Z,97192.05
2022-10-31T21:18:07.844Z,97191.21
2022-10-31T21:20:41.301Z,97192.05
2022-10-31T21:23:12.196Z,97192.54
2022-10-31T21:25:43.343Z,97194.19
2022-10-31T21:28:13.508Z,97188.98
2022-10-31T21:30:45.675Z,97193.36
2022-10-31T21:33:16.145Z,97192.52
2022-10-31T21:35:52.489Z,97191.84
2022-10-31T21:38:22.028Z,97191.00
2022-10-31T21:41:00.465Z,97185.44
2022-10-31T21:43:31.599Z,97185.91
2022-10-31T21:46:13.420Z,97185.52
2022-10-31T21:48:44.597Z,97185.15
2022-10-31T21:51:18.325Z,97177.10
2022-10-31T21:54:08.597Z,97180.61
2022-10-31T21:56:38.734Z,97174.86
2022-10-31T21:59:09.301Z,97180.64
2022-10-31T22:01:39.855Z,97177.28
2022-10-31T22:04:10.236Z,97173.71
2022-10-31T22:06:40.379Z,97177.10
2022-10-31T22:09:12.605Z,97176.61
2022-10-31T22:11:45.044Z,97174.39
2022-10-31T22:14:15.792Z,97175.36
2022-10-31T22:16:45.927Z,97179.39
2022-10-31T22:19:15.985Z,97176.89
2022-10-31T22:21:47.760Z,97176.56
2022-10-31T22:24:18.111Z,97174.36
2022-10-31T22:26:48.889Z,97171.84
2022-10-31T22:29:20.952Z,97170.83
2022-10-31T22:31:57.339Z,97178.55
2022-10-31T22:34:31.467Z,97176.27
2022-10-31T22:37:03.853Z,97171.79
2022-10-31T22:39:33.948Z,97172.17
2022-10-31T22:42:04.445Z,97170.64
2022-10-31T22:44:34.770Z,97174.49
2022-10-31T22:47:04.126Z,97173.25
2022-10-31T22:49:34.448Z,97172.70
2022-10-31T22:52:06.063Z,97166.06
2022-10-31T22:54:36.020Z,97167.33
2022-10-31T22:57:08.488Z,97169.60
2022-10-31T22:59:39.246Z,97169.75
2022-10-31T23:02:12.518Z,97167.36
2022-10-31T23:04:42.880Z,97166.33
2022-10-31T23:07:14.825Z,97165.92
2022-10-31T23:09:45.631Z,97168.07
2022-10-31T23:12:35.820Z,97167.69
2022-10-31T23:15:07.360Z,97165.39
2022-10-31T23:17:37.284Z,97164.86
2022-10-31T23:20:07.565Z,97167.64
2022-10-31T23:22:38.430Z,97166.30
2022-10-31T23:25:09.195Z,97165.73
2022-10-31T23:27:39.258Z,97164.88
2022-10-31T23:30:10.396Z,97162.71
2022-10-31T23:32:40.750Z,97161.67
2022-10-31T23:35:11.577Z,97160.84
2022-10-31T23:37:41.644Z,97159.67
2022-10-31T23:40:13.059Z,97158.70
2022-10-31T23:42:43.319Z,97156.64
2022-10-31T23:45:13.436Z,97155.33
2022-10-31T23:47:43.674Z,97158.01
2022-10-31T23:50:13.256Z,97156.03
2022-10-31T23:52:43.677Z,97159.36
2022-10-31T23:55:13.918Z,97157.52
2022-10-31T23:57:43.583Z,97156.28
